createdAt,value
2018-05-09T02:16:37.611Z,88.07
2018-05-09T02:16:38.174Z,88.26
2018-05-09T02:16:38.775Z,87.78
2018-05-09T02:16:39.374Z,88.35
2018-05-09T02:16:40.017Z,88.07
2018-05-09T02:16:40.577Z,88.26
2018-05-09T02:16:41.173Z,87.97
2018-05-09T02:16:41.774Z,88.35
2018-05-09T02:17:35.279Z,83.87
2018-05-09T02:17:35.836Z,84.06
2018-05-09T02:17:36.518Z,84.16
2018-05-09T02:17:37.035Z,84.06
2018-05-09T02:17:37.675Z,84.16
2018-05-09T02:17:38.310Z,84.06
2018-05-09T02:17:38.831Z,84.16
2018-05-09T02:17:39.493Z,84.06
2018-05-09T02:18:32.883Z,84.06
2018-05-09T02:18:33.480Z,83.77
2018-05-09T02:18:34.081Z,83.87
2018-05-09T02:18:34.679Z,84.25
2018-05-09T02:18:35.279Z,84.25
2018-05-09T02:18:35.883Z,84.53
2018-05-09T02:18:36.480Z,84.63
2018-05-09T02:18:37.079Z,84.16
2018-05-09T02:19:30.536Z,85.77
2018-05-09T02:19:31.133Z,85.87
2018-05-09T02:19:31.733Z,85.58
2018-05-09T02:19:32.332Z,85.87
2018-05-09T02:19:32.931Z,85.58
2018-05-09T02:19:33.532Z,85.77
2018-05-09T02:19:34.132Z,86.06
2018-05-09T02:19:34.731Z,85.68
2018-05-09T02:20:28.187Z,82.06
2018-05-09T02:20:28.786Z,81.01
2018-05-09T02:20:29.386Z,81.01
2018-05-09T02:20:29.985Z,81.01
2018-05-09T02:20:30.589Z,81.20
2018-05-09T02:20:31.184Z,80.91
2018-05-09T02:20:31.787Z,81.20
2018-05-09T02:20:32.387Z,81.10
2018-05-09T02:21:26.863Z,83.77
2018-05-09T02:21:27.461Z,83.39
2018-05-09T02:21:28.116Z,83.20
2018-05-09T02:21:28.660Z,83.48
2018-05-09T02:21:29.260Z,83.77
2018-05-09T02:21:29.860Z,83.67
2018-05-09T02:21:30.460Z,83.58
2018-05-09T02:21:31.060Z,83.67
2018-05-09T02:22:24.541Z,83.20
2018-05-09T02:22:25.126Z,83.67
2018-05-09T02:22:25.713Z,83.48
2018-05-09T02:22:26.312Z,83.48
2018-05-09T02:22:26.917Z,83.77
2018-05-09T02:22:27.513Z,83.58
2018-05-09T02:22:28.112Z,83.39
2018-05-09T02:22:28.712Z,83.58
2018-05-09T02:23:22.168Z,83.96
2018-05-09T02:23:22.764Z,83.96
2018-05-09T02:23:23.365Z,83.96
2018-05-09T02:23:23.964Z,84.16
2018-05-09T02:23:24.565Z,83.96
2018-05-09T02:23:25.164Z,84.06
2018-05-09T02:23:25.767Z,83.67
2018-05-09T02:23:26.364Z,83.58
2018-05-09T02:24:19.820Z,84.06
2018-05-09T02:24:20.418Z,83.96
2018-05-09T02:24:21.017Z,83.77
2018-05-09T02:24:21.618Z,83.96
2018-05-09T02:24:22.216Z,84.16
2018-05-09T02:24:22.822Z,83.96
2018-05-09T02:24:23.418Z,84.06
2018-05-09T02:24:24.021Z,84.44
2018-05-09T02:25:18.495Z,84.63
2018-05-09T02:25:19.092Z,84.34
2018-05-09T02:25:19.692Z,84.16
2018-05-09T02:25:20.291Z,84.53
2018-05-09T02:25:20.891Z,84.63
2018-05-09T02:25:21.491Z,84.34
2018-05-09T02:25:22.099Z,84.53
2018-05-09T02:25:22.689Z,84.44
2018-05-09T02:26:16.148Z,85.58
2018-05-09T02:26:16.748Z,85.49
2018-05-09T02:26:17.345Z,85.49
2018-05-09T02:26:17.945Z,85.49
2018-05-09T02:26:18.544Z,85.49
2018-05-09T02:26:19.148Z,85.30
2018-05-09T02:26:19.762Z,85.49
2018-05-09T02:26:20.344Z,85.30
2018-05-09T02:27:14.849Z,84.16
2018-05-09T02:27:15.419Z,84.34
2018-05-09T02:27:16.020Z,84.34
2018-05-09T02:27:16.620Z,84.34
2018-05-09T02:27:17.219Z,85.49
2018-05-09T02:27:17.821Z,84.72
2018-05-09T02:27:18.422Z,85.21
2018-05-09T02:27:19.019Z,85.01
2018-05-09T02:28:12.475Z,82.82
2018-05-09T02:28:13.077Z,82.91
2018-05-09T02:28:13.674Z,82.82
2018-05-09T02:28:14.274Z,82.72
2018-05-09T02:28:14.873Z,82.91
2018-05-09T02:28:15.473Z,83.01
2018-05-09T02:28:16.073Z,83.20
2018-05-09T02:28:16.673Z,83.11
2018-05-09T02:29:11.151Z,84.53
2018-05-09T02:29:11.747Z,84.25
2018-05-09T02:29:12.348Z,84.25
2018-05-09T02:29:12.948Z,84.16
2018-05-09T02:29:13.548Z,84.25
2018-05-09T02:29:14.147Z,83.96
2018-05-09T02:29:14.748Z,84.06
2018-05-09T02:29:15.347Z,84.25
2018-05-09T02:30:08.804Z,85.11
2018-05-09T02:30:09.405Z,85.21
2018-05-09T02:30:10.001Z,84.92
2018-05-09T02:30:10.602Z,84.92
2018-05-09T02:30:11.200Z,85.01
2018-05-09T02:30:11.799Z,85.01
2018-05-09T02:30:12.401Z,84.92
2018-05-09T02:30:13.000Z,84.92
2018-05-09T02:31:07.580Z,87.21
2018-05-09T02:31:08.168Z,87.11
2018-05-09T02:31:08.679Z,87.02
2018-05-09T02:31:09.373Z,86.92
2018-05-09T02:31:09.888Z,87.11
2018-05-09T02:31:10.534Z,87.02
2018-05-09T02:31:11.120Z,87.02
2018-05-09T02:31:11.778Z,87.11
2018-05-09T02:32:05.156Z,85.97
2018-05-09T02:32:05.738Z,86.06
2018-05-09T02:32:06.328Z,85.97
2018-05-09T02:32:06.932Z,85.58
2018-05-09T02:32:07.527Z,86.06
2018-05-09T02:32:08.127Z,85.97
2018-05-09T02:32:08.728Z,86.06
2018-05-09T02:32:09.328Z,85.97
2018-05-09T02:33:02.782Z,85.58
2018-05-09T02:33:03.382Z,86.01
2018-05-09T02:33:03.980Z,85.39
2018-05-09T02:33:04.582Z,85.39
2018-05-09T02:33:05.180Z,85.01
2018-05-09T02:33:05.780Z,85.21
2018-05-09T02:33:06.380Z,85.21
2018-05-09T02:33:06.979Z,84.92
2018-05-09T02:34:00.435Z,83.67
2018-05-09T02:34:01.033Z,83.58
2018-05-09T02:34:01.633Z,83.96
2018-05-09T02:34:02.232Z,84.16
2018-05-09T02:34:02.832Z,84.06
2018-05-09T02:34:03.433Z,84.06
2018-05-09T02:34:04.032Z,84.06
2018-05-09T02:34:04.631Z,83.87
2018-05-09T02:34:59.112Z,85.11
2018-05-09T02:34:59.708Z,85.01
2018-05-09T02:35:00.308Z,85.01
2018-05-09T02:35:00.907Z,85.01
2018-05-09T02:35:01.507Z,84.96
2018-05-09T02:35:02.107Z,84.82
2018-05-09T02:35:02.711Z,85.11
2018-05-09T02:35:03.307Z,85.15
2018-05-09T02:35:56.762Z,84.82
2018-05-09T02:35:57.360Z,84.86
2018-05-09T02:35:57.960Z,85.05
2018-05-09T02:35:58.630Z,84.92
2018-05-09T02:35:59.162Z,84.96
2018-05-09T02:35:59.758Z,85.11
2018-05-09T02:36:00.357Z,85.01
2018-05-09T02:36:00.957Z,85.21
2018-05-09T02:36:54.413Z,84.96
2018-05-09T02:36:55.011Z,85.15
2018-05-09T02:36:55.611Z,85.15
2018-05-09T02:36:56.216Z,85.11
2018-05-09T02:36:56.815Z,84.34
2018-05-09T02:36:57.412Z,84.39
2018-05-09T02:36:58.011Z,84.34
2018-05-09T02:36:58.608Z,84.48
2018-05-09T02:37:52.091Z,84.16
2018-05-09T02:37:52.663Z,84.25
2018-05-09T02:37:53.263Z,84.44
2018-05-09T02:37:53.862Z,84.16
2018-05-09T02:37:54.465Z,84.34
2018-05-09T02:37:55.062Z,84.44
2018-05-09T02:37:55.667Z,84.34
2018-05-09T02:37:56.262Z,84.44
2018-05-09T02:38:50.229Z,85.11
2018-05-09T02:38:50.832Z,85.39
2018-05-09T02:38:51.429Z,85.49
2018-05-09T02:38:52.031Z,85.30
2018-05-09T02:38:52.628Z,85.39
2018-05-09T02:38:53.224Z,85.68
2018-05-09T02:38:53.825Z,85.63
2018-05-09T02:40:16.348Z,86.25
2018-05-09T02:40:16.947Z,86.10
2018-05-09T02:40:17.546Z,86.30
2018-05-09T02:40:18.146Z,86.25
2018-05-09T02:40:18.745Z,86.01
2018-05-09T02:40:19.344Z,86.16
2018-05-09T02:40:19.944Z,86.10
2018-05-09T02:40:20.548Z,86.30
2018-05-09T02:40:21.147Z,86.30
2018-05-09T02:40:21.743Z,86.39
2018-05-09T02:41:18.300Z,85.01
2018-05-09T02:41:18.903Z,85.05
2018-05-09T02:41:19.498Z,84.96
2018-05-09T02:41:20.100Z,84.86
2018-05-09T02:41:20.701Z,85.11
2018-05-09T02:41:21.296Z,85.15
2018-05-09T02:42:16.805Z,83.81
2018-05-09T02:42:17.369Z,83.81
2018-05-09T02:42:17.970Z,83.81
2018-05-09T02:42:18.569Z,83.43
2018-05-09T02:42:19.168Z,83.72
2018-05-09T02:42:19.772Z,83.81
2018-05-09T02:42:20.368Z,83.72
2018-05-09T02:43:13.913Z,85.72
2018-05-09T02:43:14.511Z,85.72
2018-05-09T02:43:15.109Z,85.53
2018-05-09T02:43:15.716Z,85.91
2018-05-09T02:43:16.309Z,85.72
2018-05-09T02:43:16.911Z,85.72
2018-05-09T02:43:17.511Z,85.91
2018-05-09T02:43:18.111Z,85.63
2018-05-09T02:44:11.565Z,84.39
2018-05-09T02:44:12.164Z,84.39
2018-05-09T02:44:12.761Z,84.20
2018-05-09T02:44:13.363Z,84.58
2018-05-09T02:44:13.960Z,84.58
2018-05-09T02:44:14.565Z,84.48
2018-05-09T02:44:15.162Z,84.58
2018-05-09T02:44:15.761Z,84.39
2018-05-09T02:45:09.215Z,86.58
2018-05-09T02:45:09.814Z,86.96
2018-05-09T02:45:10.414Z,86.58
2018-05-09T02:45:11.018Z,86.58
2018-05-09T02:45:11.613Z,86.58
2018-05-09T02:45:12.212Z,86.77
2018-05-09T02:45:12.873Z,86.87
2018-05-09T02:45:13.413Z,86.68
2018-05-09T02:46:07.892Z,87.63
2018-05-09T02:46:08.489Z,87.63
2018-05-09T02:46:09.088Z,87.63
2018-05-09T02:46:09.689Z,88.01
2018-05-09T02:46:10.288Z,87.63
2018-05-09T02:46:10.888Z,87.73
2018-05-09T02:46:11.488Z,87.82
2018-05-09T02:46:12.087Z,87.73
2018-05-09T02:47:06.567Z,87.82
2018-05-09T02:47:07.165Z,87.73
2018-05-09T02:47:07.763Z,87.92
2018-05-09T02:47:08.366Z,87.82
2018-05-09T02:47:08.963Z,87.44
2018-05-09T02:47:09.565Z,88.11
2018-05-09T02:47:10.164Z,87.44
2018-05-09T02:47:10.764Z,87.54
2018-05-09T02:48:04.244Z,84.39
2018-05-09T02:48:04.819Z,84.39
2018-05-09T02:48:05.417Z,84.39
2018-05-09T02:48:06.016Z,84.29
2018-05-09T02:48:06.620Z,84.29
2018-05-09T02:48:07.217Z,84.39
2018-05-09T02:48:07.816Z,84.29
2018-05-09T02:48:08.422Z,84.29
2018-05-09T02:49:01.877Z,87.06
2018-05-09T02:49:02.469Z,87.25
2018-05-09T02:49:03.069Z,87.15
2018-05-09T02:49:03.671Z,87.15
2018-05-09T02:49:04.272Z,87.06
2018-05-09T02:49:04.868Z,87.15
2018-05-09T02:49:05.473Z,87.35
2018-05-09T02:49:06.066Z,87.35
2018-05-09T02:50:00.675Z,87.63
2018-05-09T02:50:01.346Z,87.15
2018-05-09T02:50:01.879Z,87.54
2018-05-09T02:50:02.540Z,87.92
2018-05-09T02:50:03.028Z,86.96
2018-05-09T02:50:03.573Z,87.44
2018-05-09T02:50:04.143Z,87.25
2018-05-09T02:50:04.744Z,87.25
2018-05-09T02:50:58.199Z,86.77
2018-05-09T02:50:58.797Z,86.77
2018-05-09T02:50:59.396Z,86.87
2018-05-09T02:50:59.996Z,86.58
2018-05-09T02:51:00.597Z,86.87
2018-05-09T02:51:01.196Z,86.87
2018-05-09T02:51:01.796Z,86.87
2018-05-09T02:51:02.395Z,86.87
2018-05-09T02:51:56.874Z,85.72
2018-05-09T02:51:57.471Z,85.34
2018-05-09T02:51:58.071Z,85.63
2018-05-09T02:51:58.672Z,85.34
2018-05-09T02:51:59.273Z,85.72
2018-05-09T02:51:59.870Z,85.34
2018-05-09T02:52:00.471Z,85.91
2018-05-09T02:52:01.071Z,85.34
2018-05-09T02:52:55.575Z,86.30
2018-05-09T02:52:56.145Z,86.10
2018-05-09T02:52:56.746Z,86.68
2018-05-09T02:52:57.346Z,86.77
2018-05-09T02:52:57.945Z,86.49
2018-05-09T02:52:58.545Z,86.68
2018-05-09T02:52:59.147Z,86.49
2018-05-09T02:52:59.746Z,86.68
2018-05-09T02:53:53.305Z,88.01
2018-05-09T02:53:53.901Z,88.20
2018-05-09T02:53:54.502Z,88.11
2018-05-09T02:53:55.105Z,88.11
2018-05-09T02:53:55.705Z,88.11
2018-05-09T02:53:56.302Z,88.20
2018-05-09T02:53:56.900Z,88.30
2018-05-09T02:53:57.501Z,88.11
2018-05-09T02:54:50.961Z,86.96
2018-05-09T02:54:51.561Z,86.77
2018-05-09T02:54:52.151Z,87.06
2018-05-09T02:54:52.752Z,87.25
2018-05-09T02:54:53.352Z,87.06
2018-05-09T02:54:53.950Z,86.87
2018-05-09T02:54:54.552Z,86.87
2018-05-09T02:54:55.151Z,86.96
2018-05-09T02:55:48.607Z,88.11
2018-05-09T02:55:49.272Z,88.11
2018-05-09T02:55:49.804Z,88.11
2018-05-09T02:55:50.405Z,88.30
2018-05-09T02:55:51.005Z,88.11
2018-05-09T02:55:51.604Z,88.01
2018-05-09T02:55:52.204Z,88.11
2018-05-09T02:55:52.803Z,88.01
2018-05-09T02:56:47.283Z,86.30
2018-05-09T02:56:47.881Z,86.10
2018-05-09T02:56:48.480Z,86.20
2018-05-09T02:56:49.079Z,86.10
2018-05-09T02:56:49.679Z,86.30
2018-05-09T02:56:50.287Z,86.30
2018-05-09T02:56:50.880Z,86.20
2018-05-09T02:56:51.479Z,86.30
2018-05-09T02:57:44.973Z,87.25
2018-05-09T02:57:45.533Z,87.15
2018-05-09T02:57:46.133Z,87.44
2018-05-09T02:57:46.733Z,87.35
2018-05-09T02:57:47.336Z,86.96
2018-05-09T02:57:47.939Z,86.77
2018-05-09T02:57:48.531Z,87.35
2018-05-09T02:57:49.132Z,87.25
2018-05-09T02:58:43.613Z,86.10
2018-05-09T02:58:44.206Z,85.72
2018-05-09T02:58:44.809Z,85.53
2018-05-09T02:58:45.409Z,85.91
2018-05-09T02:58:46.036Z,86.30
2018-05-09T02:58:46.605Z,85.72
2018-05-09T02:58:47.206Z,85.63
2018-05-09T02:58:47.805Z,85.91
2018-05-09T02:59:41.272Z,87.06
2018-05-09T02:59:41.860Z,87.15
2018-05-09T02:59:42.461Z,87.15
2018-05-09T02:59:43.063Z,87.54
2018-05-09T02:59:43.662Z,87.44
2018-05-09T02:59:44.259Z,86.96
2018-05-09T02:59:44.860Z,87.15
2018-05-09T02:59:45.460Z,86.96
2018-05-09T03:00:38.918Z,87.15
2018-05-09T03:00:39.511Z,87.44
2018-05-09T03:00:40.112Z,87.15
2018-05-09T03:00:40.712Z,87.35
2018-05-09T03:00:41.311Z,86.96
2018-05-09T03:00:41.915Z,86.96
2018-05-09T03:00:42.508Z,86.96
2018-05-09T03:00:43.110Z,87.25
2018-05-09T03:01:37.595Z,86.68
2018-05-09T03:01:38.187Z,86.68
2018-05-09T03:01:38.788Z,86.58
2018-05-09T03:01:39.397Z,86.68
2018-05-09T03:01:39.986Z,86.96
2018-05-09T03:01:40.586Z,86.77
2018-05-09T03:01:41.188Z,86.68
2018-05-09T03:01:41.786Z,86.58
2018-05-09T03:02:36.268Z,86.58
2018-05-09T03:02:36.864Z,86.49
2018-05-09T03:02:37.463Z,86.49
2018-05-09T03:02:38.063Z,86.77
2018-05-09T03:02:38.662Z,86.87
2018-05-09T03:02:39.261Z,86.87
2018-05-09T03:02:39.866Z,86.77
2018-05-09T03:02:40.463Z,86.87
2018-05-09T03:03:33.943Z,87.25
2018-05-09T03:03:34.514Z,87.44
2018-05-09T03:03:35.115Z,86.96
2018-05-09T03:03:35.717Z,86.77
2018-05-09T03:03:36.315Z,87.15
2018-05-09T03:03:36.914Z,87.15
2018-05-09T03:03:37.514Z,86.96
2018-05-09T03:03:38.115Z,86.96
2018-05-09T03:04:31.572Z,87.63
2018-05-09T03:04:32.164Z,87.73
2018-05-09T03:04:32.764Z,87.82
2018-05-09T03:04:33.364Z,87.82
2018-05-09T03:04:33.964Z,87.82
2018-05-09T03:04:34.565Z,87.82
2018-05-09T03:04:35.165Z,88.01
2018-05-09T03:04:35.763Z,87.54
2018-05-09T03:05:30.251Z,85.72
2018-05-09T03:05:30.846Z,86.30
2018-05-09T03:05:31.519Z,86.10
2018-05-09T03:05:32.040Z,86.10
2018-05-09T03:05:32.643Z,86.39
2018-05-09T03:05:33.238Z,86.30
2018-05-09T03:05:33.840Z,86.10
2018-05-09T03:05:34.440Z,86.20
2018-05-09T03:06:27.897Z,86.58
2018-05-09T03:06:28.494Z,86.68
2018-05-09T03:06:29.096Z,86.30
2018-05-09T03:06:29.694Z,86.39
2018-05-09T03:06:30.293Z,86.49
2018-05-09T03:06:30.893Z,86.58
2018-05-09T03:06:31.498Z,86.49
2018-05-09T03:06:32.094Z,86.49
2018-05-09T03:07:26.571Z,84.29
2018-05-09T03:07:27.168Z,83.91
2018-05-09T03:07:27.767Z,84.10
2018-05-09T03:07:28.367Z,84.20
2018-05-09T03:07:28.966Z,84.20
2018-05-09T03:07:29.566Z,84.10
2018-05-09T03:07:30.173Z,84.10
2018-05-09T03:07:30.767Z,84.00
2018-05-09T03:08:24.248Z,86.20
2018-05-09T03:08:24.821Z,86.10
2018-05-09T03:08:25.420Z,86.20
2018-05-09T03:08:26.022Z,86.10
2018-05-09T03:08:26.619Z,86.39
2018-05-09T03:08:27.220Z,85.91
2018-05-09T03:08:27.819Z,86.20
2018-05-09T03:08:28.420Z,85.82
2018-05-09T03:09:22.898Z,86.10
2018-05-09T03:09:23.495Z,86.30
2018-05-09T03:09:24.096Z,86.01
2018-05-09T03:09:24.694Z,86.10
2018-05-09T03:09:25.293Z,85.91
2018-05-09T03:09:25.894Z,85.82
2018-05-09T03:09:26.494Z,86.01
2018-05-09T03:09:27.097Z,86.20
2018-05-09T03:10:20.551Z,86.96
2018-05-09T03:10:21.148Z,86.77
2018-05-09T03:10:21.747Z,86.77
2018-05-09T03:10:22.347Z,86.77
2018-05-09T03:10:22.948Z,86.49
2018-05-09T03:10:23.547Z,86.58
2018-05-09T03:10:24.146Z,86.68
2018-05-09T03:10:24.746Z,86.58
2018-05-09T03:11:19.229Z,84.00
2018-05-09T03:11:19.822Z,84.29
2018-05-09T03:11:20.421Z,84.20
2018-05-09T03:11:21.023Z,84.00
2018-05-09T03:11:21.661Z,84.58
2018-05-09T03:11:22.221Z,84.48
2018-05-09T03:11:22.826Z,84.58
2018-05-09T03:11:23.458Z,84.67
2018-05-09T03:12:16.877Z,86.10
2018-05-09T03:12:17.475Z,86.20
2018-05-09T03:12:18.075Z,86.58
2018-05-09T03:12:18.677Z,86.30
2018-05-09T03:12:19.276Z,86.68
2018-05-09T03:12:19.875Z,86.58
2018-05-09T03:12:20.474Z,86.68
2018-05-09T03:12:21.075Z,86.30
2018-05-09T03:30:36.065Z,86.73
2018-05-09T03:30:36.629Z,86.35
2018-05-09T03:30:37.232Z,86.16
2018-05-09T03:30:37.831Z,86.25
2018-05-09T03:30:38.429Z,86.25
2018-05-09T03:30:39.030Z,86.30
2018-05-09T03:30:39.633Z,85.87
2018-05-09T03:30:40.229Z,86.44
2018-05-09T03:31:33.687Z,85.49
2018-05-09T03:31:34.285Z,85.49
2018-05-09T03:31:34.883Z,85.30
2018-05-09T03:31:35.485Z,85.58
2018-05-09T03:31:36.082Z,85.30
2018-05-09T03:31:36.683Z,85.30
2018-05-09T03:31:37.281Z,85.39
2018-05-09T03:31:37.883Z,85.49
2018-05-09T03:32:32.425Z,83.67
2018-05-09T03:32:32.958Z,83.72
2018-05-09T03:32:33.561Z,83.39
2018-05-09T03:32:34.158Z,83.39
2018-05-09T03:32:34.772Z,83.43
2018-05-09T03:32:35.357Z,83.67
2018-05-09T03:32:35.957Z,83.39
2018-05-09T03:32:36.558Z,83.91
2018-05-09T03:33:31.044Z,85.58
2018-05-09T03:33:31.635Z,85.63
2018-05-09T03:33:32.235Z,85.68
2018-05-09T03:33:32.834Z,85.58
2018-05-09T03:33:33.434Z,85.21
2018-05-09T03:33:34.033Z,84.92
2018-05-09T03:33:34.635Z,85.11
2018-05-09T03:33:35.234Z,84.96
2018-05-09T03:34:29.741Z,85.68
2018-05-09T03:34:30.310Z,85.87
2018-05-09T03:34:30.911Z,85.97
2018-05-09T03:34:31.511Z,85.68
2018-05-09T03:34:32.111Z,85.68
2018-05-09T03:34:32.709Z,86.06
2018-05-09T03:34:33.310Z,86.06
2018-05-09T03:34:33.911Z,86.16
2018-05-09T03:35:28.389Z,86.16
2018-05-09T03:35:28.989Z,86.54
2018-05-09T03:35:29.586Z,86.25
2018-05-09T03:35:30.185Z,86.44
2018-05-09T03:35:30.785Z,86.54
2018-05-09T03:35:31.387Z,86.35
2018-05-09T03:35:31.985Z,86.25
2018-05-09T03:35:32.586Z,86.35
2018-05-09T03:36:27.071Z,87.21
2018-05-09T03:36:27.661Z,87.21
2018-05-09T03:36:28.268Z,87.21
2018-05-09T03:36:28.864Z,86.54
2018-05-09T03:36:29.462Z,86.73
2018-05-09T03:36:30.061Z,86.54
2018-05-09T03:36:30.661Z,86.54
2018-05-09T03:36:31.262Z,86.35
2018-05-09T03:37:24.756Z,84.92
2018-05-09T03:37:25.384Z,85.21
2018-05-09T03:37:25.984Z,85.21
2018-05-09T03:37:26.624Z,85.21
2018-05-09T03:37:27.179Z,85.11
2018-05-09T03:37:27.776Z,84.82
2018-05-09T03:37:28.341Z,84.44
2018-05-09T03:37:28.917Z,84.25
2018-05-09T03:38:23.393Z,81.67
2018-05-09T03:38:23.991Z,81.48
2018-05-09T03:38:24.591Z,81.77
2018-05-09T03:38:25.189Z,81.67
2018-05-09T03:38:25.791Z,81.29
2018-05-09T03:38:26.390Z,81.29
2018-05-09T03:38:26.988Z,81.48
2018-05-09T03:38:27.592Z,81.58
2018-05-09T03:39:22.097Z,83.39
2018-05-09T03:39:22.665Z,83.77
2018-05-09T03:39:23.266Z,83.48
2018-05-09T03:39:23.866Z,83.67
2018-05-09T03:39:24.466Z,83.39
2018-05-09T03:39:25.067Z,83.29
2018-05-09T03:39:25.668Z,83.48
2018-05-09T03:39:26.265Z,83.58
2018-05-09T03:40:20.746Z,85.97
2018-05-09T03:40:21.343Z,86.16
2018-05-09T03:40:21.945Z,85.68
2018-05-09T03:40:22.542Z,85.97
2018-05-09T03:40:23.142Z,85.77
2018-05-09T03:40:23.742Z,85.97
2018-05-09T03:40:24.341Z,85.97
2018-05-09T03:40:24.942Z,86.25
2018-05-09T03:41:18.397Z,84.06
2018-05-09T03:41:18.993Z,84.25
2018-05-09T03:41:19.594Z,83.87
2018-05-09T03:41:20.194Z,84.06
2018-05-09T03:41:20.794Z,84.25
2018-05-09T03:41:21.393Z,84.16
2018-05-09T03:41:21.995Z,84.06
2018-05-09T03:41:22.594Z,83.48
2018-05-09T03:42:16.560Z,83.39
2018-05-09T03:42:17.164Z,83.39
2018-05-09T03:42:17.758Z,83.58
2018-05-09T03:42:18.357Z,83.77
2018-05-09T03:42:18.957Z,83.67
2018-05-09T03:42:19.559Z,83.58
2018-05-09T03:42:20.159Z,83.77
2018-05-09T03:43:14.110Z,84.39
2018-05-09T03:43:14.708Z,83.96
2018-05-09T03:43:15.311Z,84.29
2018-05-09T03:43:15.908Z,84.34
2018-05-09T03:43:16.508Z,84.10
2018-05-09T03:43:17.109Z,84.20
2018-05-09T03:43:17.707Z,83.77
2018-05-09T03:44:12.205Z,83.77
2018-05-09T03:44:12.770Z,83.87
2018-05-09T03:44:13.368Z,83.87
2018-05-09T03:44:13.967Z,84.16
2018-05-09T03:44:14.566Z,83.96
2018-05-09T03:44:15.166Z,84.06
2018-05-09T03:44:15.779Z,83.87
2018-05-09T03:44:16.368Z,84.16
2018-05-09T03:45:10.855Z,84.92
2018-05-09T03:45:11.446Z,85.39
2018-05-09T03:45:12.044Z,85.39
2018-05-09T03:45:12.644Z,85.21
2018-05-09T03:45:13.244Z,85.21
2018-05-09T03:45:13.844Z,85.21
2018-05-09T03:45:14.448Z,84.92
2018-05-09T03:45:15.043Z,85.39
2018-05-09T03:46:09.523Z,85.01
2018-05-09T03:46:10.120Z,84.39
2018-05-09T03:46:10.720Z,84.39
2018-05-09T03:46:11.319Z,84.29
2018-05-09T03:46:11.920Z,84.39
2018-05-09T03:46:12.525Z,84.48
2018-05-09T03:46:13.120Z,84.34
2018-05-09T03:46:13.720Z,84.29
2018-05-09T03:47:07.188Z,84.39
2018-05-09T03:47:07.771Z,84.39
2018-05-09T03:47:08.371Z,84.39
2018-05-09T03:47:08.971Z,84.77
2018-05-09T03:47:09.571Z,84.58
2018-05-09T03:47:10.171Z,84.48
2018-05-09T03:47:10.771Z,84.58
2018-05-09T03:47:11.370Z,84.48
2018-05-09T03:48:04.829Z,83.14
2018-05-09T03:48:05.426Z,83.34
2018-05-09T03:48:06.025Z,83.24
2018-05-09T03:48:06.628Z,83.53
2018-05-09T03:48:07.226Z,83.34
2018-05-09T03:48:07.824Z,83.24
2018-05-09T03:48:08.427Z,83.24
2018-05-09T03:48:09.025Z,83.53
2018-05-09T03:49:02.479Z,84.77
2018-05-09T03:49:03.078Z,85.05
2018-05-09T03:49:03.676Z,84.86
2018-05-09T03:49:04.284Z,84.86
2018-05-09T03:49:04.877Z,84.86
2018-05-09T03:49:05.477Z,85.15
2018-05-09T03:49:06.076Z,85.15
2018-05-09T03:49:06.677Z,85.05
2018-05-09T03:50:01.182Z,84.77
2018-05-09T03:50:01.751Z,84.58
2018-05-09T03:50:02.352Z,84.39
2018-05-09T03:50:02.958Z,84.29
2018-05-09T03:50:03.551Z,84.39
2018-05-09T03:50:04.152Z,84.77
2018-05-09T03:50:04.752Z,84.77
2018-05-09T03:50:05.351Z,84.58
2018-05-09T03:50:58.806Z,84.86
2018-05-09T03:50:59.404Z,84.86
2018-05-09T03:51:00.003Z,84.86
2018-05-09T03:51:00.669Z,85.05
2018-05-09T03:51:01.206Z,85.15
2018-05-09T03:51:01.804Z,84.96
2018-05-09T03:51:02.404Z,85.15
2018-05-09T03:51:03.003Z,84.96
2018-05-09T03:51:56.459Z,84.86
2018-05-09T03:51:57.056Z,84.86
2018-05-09T03:51:57.655Z,84.96
2018-05-09T03:51:58.255Z,85.05
2018-05-09T03:51:58.856Z,85.05
2018-05-09T03:51:59.454Z,85.34
2018-05-09T03:52:00.055Z,85.15
2018-05-09T03:52:00.655Z,84.58
2018-05-09T03:52:54.112Z,84.39
2018-05-09T03:52:54.707Z,84.48
2018-05-09T03:52:55.310Z,84.48
2018-05-09T03:52:55.908Z,84.39
2018-05-09T03:52:56.507Z,84.48
2018-05-09T03:52:57.107Z,84.39
2018-05-09T03:52:57.709Z,84.29
2018-05-09T03:52:58.308Z,84.29
2018-05-09T03:53:51.761Z,85.05
2018-05-09T03:53:52.359Z,84.86
2018-05-09T03:53:52.960Z,85.15
2018-05-09T03:53:53.559Z,85.15
2018-05-09T03:53:54.159Z,85.25
2018-05-09T03:53:54.761Z,85.05
2018-05-09T03:53:55.366Z,84.29
2018-05-09T03:53:55.970Z,85.05
2018-05-09T03:54:50.463Z,86.20
2018-05-09T03:54:51.034Z,86.20
2018-05-09T03:54:51.634Z,86.20
2018-05-09T03:54:52.234Z,86.20
2018-05-09T03:54:52.835Z,86.01
2018-05-09T03:54:53.433Z,86.58
2018-05-09T03:54:54.034Z,86.68
2018-05-09T03:54:54.634Z,86.49
2018-05-09T03:55:49.113Z,86.39
2018-05-09T03:55:49.708Z,87.01
2018-05-09T03:55:50.310Z,86.63
2018-05-09T03:55:50.910Z,87.20
2018-05-09T03:55:51.509Z,86.49
2018-05-09T03:55:52.109Z,87.15
2018-05-09T03:55:52.709Z,86.49
2018-05-09T03:55:53.308Z,86.43
2018-05-09T03:56:47.791Z,87.87
2018-05-09T03:56:48.389Z,87.68
2018-05-09T03:56:48.985Z,87.77
2018-05-09T03:56:49.589Z,87.73
2018-05-09T03:56:50.187Z,87.48
2018-05-09T03:56:50.785Z,87.48
2018-05-09T03:56:51.385Z,88.06
2018-05-09T03:56:51.986Z,87.29
2018-05-09T03:57:45.445Z,88.15
2018-05-09T03:57:46.040Z,88.34
2018-05-09T03:57:46.638Z,87.96
2018-05-09T03:57:47.237Z,88.34
2018-05-09T03:57:47.838Z,88.25
2018-05-09T03:57:48.439Z,88.25
2018-05-09T03:57:49.039Z,88.15
2018-05-09T03:57:49.637Z,88.15
2018-05-09T03:58:43.093Z,88.73
2018-05-09T03:58:43.691Z,88.63
2018-05-09T03:58:44.290Z,88.73
2018-05-09T03:58:44.890Z,88.34
2018-05-09T03:58:45.490Z,88.54
2018-05-09T03:58:46.092Z,88.63
2018-05-09T03:58:46.691Z,89.20
2018-05-09T03:58:47.292Z,89.30
2018-05-09T03:59:41.796Z,89.20
2018-05-09T03:59:42.368Z,89.11
2018-05-09T03:59:42.964Z,89.11
2018-05-09T03:59:43.565Z,89.11
2018-05-09T03:59:44.165Z,89.01
2018-05-09T03:59:44.765Z,89.20
2018-05-09T03:59:45.365Z,89.11
2018-05-09T03:59:45.965Z,88.92
2018-05-09T04:00:40.442Z,87.29
2018-05-09T04:00:41.041Z,87.39
2018-05-09T04:00:41.645Z,87.20
2018-05-09T04:00:42.241Z,87.10
2018-05-09T04:00:42.840Z,87.01
2018-05-09T04:00:43.441Z,87.29
2018-05-09T04:00:44.041Z,87.29
2018-05-09T04:00:44.640Z,87.29
2018-05-09T04:01:39.119Z,88.73
2018-05-09T04:01:39.717Z,88.63
2018-05-09T04:01:40.316Z,88.63
2018-05-09T04:01:40.916Z,88.73
2018-05-09T04:01:41.518Z,88.63
2018-05-09T04:01:42.116Z,88.44
2018-05-09T04:01:42.716Z,88.44
2018-05-09T04:01:43.316Z,88.44
2018-05-09T04:02:36.773Z,88.06
2018-05-09T04:02:37.370Z,88.15
2018-05-09T04:02:37.969Z,88.15
2018-05-09T04:02:38.571Z,88.34
2018-05-09T04:02:39.171Z,88.15
2018-05-09T04:02:39.772Z,88.92
2018-05-09T04:02:40.369Z,88.92
2018-05-09T04:02:40.968Z,88.92
2018-05-09T04:03:34.423Z,89.01
2018-05-09T04:03:35.020Z,89.49
2018-05-09T04:03:35.621Z,89.11
2018-05-09T04:03:36.222Z,88.82
2018-05-09T04:03:36.819Z,89.20
2018-05-09T04:03:37.421Z,89.30
2018-05-09T04:03:38.021Z,89.30
2018-05-09T04:03:38.621Z,89.11
2018-05-09T04:04:32.115Z,89.82
2018-05-09T04:04:32.673Z,89.82
2018-05-09T04:04:33.273Z,89.78
2018-05-09T04:04:33.872Z,89.82
2018-05-09T04:04:34.473Z,89.87
2018-05-09T04:04:35.072Z,89.92
2018-05-09T04:04:35.672Z,89.78
2018-05-09T04:04:36.271Z,89.87
2018-05-09T04:05:29.726Z,90.16
2018-05-09T04:05:30.325Z,90.49
2018-05-09T04:05:30.924Z,89.78
2018-05-09T04:05:31.531Z,89.87
2018-05-09T04:05:32.126Z,90.01
2018-05-09T04:05:32.723Z,89.73
2018-05-09T04:05:33.324Z,89.73
2018-05-09T04:05:33.924Z,89.68
2018-05-09T04:06:27.380Z,89.92
2018-05-09T04:06:27.975Z,89.44
2018-05-09T04:06:28.585Z,89.73
2018-05-09T04:06:29.181Z,89.15
2018-05-09T04:06:29.776Z,89.92
2018-05-09T04:06:30.375Z,90.11
2018-05-09T04:06:30.976Z,89.73
2018-05-09T04:06:31.575Z,89.82
2018-05-09T04:07:25.030Z,91.45
2018-05-09T04:07:25.627Z,91.64
2018-05-09T04:07:26.229Z,91.64
2018-05-09T04:07:26.832Z,91.25
2018-05-09T04:07:27.427Z,91.25
2018-05-09T04:07:28.027Z,91.54
2018-05-09T04:07:28.633Z,91.54
2018-05-09T04:07:29.227Z,91.25
2018-05-09T04:08:22.685Z,91.74